Weather at Songdo Topsville Apartments Heliport

Public forecast

Using degrees Celsius for public forecast. Weather courtesy of forecast.io.

Closest aviation weather report (METAR) to Songdo Topsville Apartments Heliport

Closest report is Gimhae International Airport, 7.3 nm (13.4 km) NNW. Retrieved 2020/09/30 16:00 UTC (15 minutes ago):

RKPK 301600Z 36003KT CAVOK 16/12 Q1012

Closest aviation forecast (TAF) to Songdo Topsville Apartments Heliport

Closest forecast is Gimhae International Airport, 7.3 nm (13.4 km) NNW. Retrieved 2020/09/30 12:00 UTC (4 hours ago):

TAF RKPK 301100Z 3012/0118 03006KT 9999 SCT030 TN13/3021Z TX26/0106Z